sensor_id;sensor_type;location;lat;lon;timestamp;P1;durP1;ratioP1;P2;durP2;ratioP2
56329;SDS011;42236;48.058;10.632;2023-05-07T00:02:13;5.78;;;3.72;;
56329;SDS011;42236;48.058;10.632;2023-05-07T00:04:59;4.32;;;3.45;;
56329;SDS011;42236;48.058;10.632;2023-05-07T00:07:45;3.22;;;3.03;;
56329;SDS011;42236;48.058;10.632;2023-05-07T00:10:31;4.43;;;3.42;;
56329;SDS011;42236;48.058;10.632;2023-05-07T00:13:17;4.13;;;3.05;;
56329;SDS011;42236;48.058;10.632;2023-05-07T00:16:03;5.63;;;2.92;;
56329;SDS011;42236;48.058;10.632;2023-05-07T00:18:49;3.03;;;2.70;;
56329;SDS011;42236;48.058;10.632;2023-05-07T00:21:35;3.97;;;2.70;;
56329;SDS011;42236;48.058;10.632;2023-05-07T00:24:20;3.42;;;3.15;;
56329;SDS011;42236;48.058;10.632;2023-05-07T00:27:06;6.03;;;3.63;;
56329;SDS011;42236;48.058;10.632;2023-05-07T00:29:52;3.92;;;3.10;;
56329;SDS011;42236;48.058;10.632;2023-05-07T00:32:38;3.40;;;3.20;;
56329;SDS011;42236;48.058;10.632;2023-05-07T00:35:24;4.40;;;3.50;;
56329;SDS011;42236;48.058;10.632;2023-05-07T00:38:09;3.70;;;2.95;;
56329;SDS011;42236;48.058;10.632;2023-05-07T00:40:55;3.75;;;3.45;;
56329;SDS011;42236;48.058;10.632;2023-05-07T00:43:41;4.93;;;3.53;;
56329;SDS011;42236;48.058;10.632;2023-05-07T00:46:27;7.13;;;3.60;;
56329;SDS011;42236;48.058;10.632;2023-05-07T00:49:14;3.80;;;3.30;;
56329;SDS011;42236;48.058;10.632;2023-05-07T00:52:00;3.65;;;3.28;;
56329;SDS011;42236;48.058;10.632;2023-05-07T00:54:46;5.43;;;3.38;;
56329;SDS011;42236;48.058;10.632;2023-05-07T00:57:37;3.95;;;3.38;;
56329;SDS011;42236;48.058;10.632;2023-05-07T01:00:25;8.07;;;3.92;;
56329;SDS011;42236;48.058;10.632;2023-05-07T01:03:10;7.25;;;3.70;;
56329;SDS011;42236;48.058;10.632;2023-05-07T01:05:56;4.32;;;3.30;;
56329;SDS011;42236;48.058;10.632;2023-05-07T01:08:44;4.70;;;3.50;;
56329;SDS011;42236;48.058;10.632;2023-05-07T01:11:31;10.88;;;4.32;;
56329;SDS011;42236;48.058;10.632;2023-05-07T01:14:17;4.00;;;3.70;;
56329;SDS011;42236;48.058;10.632;2023-05-07T01:17:03;5.10;;;4.60;;
56329;SDS011;42236;48.058;10.632;2023-05-07T01:19:49;5.68;;;4.63;;
56329;SDS011;42236;48.058;10.632;2023-05-07T01:22:36;6.60;;;3.40;;
56329;SDS011;42236;48.058;10.632;2023-05-07T01:25:23;4.90;;;4.50;;
56329;SDS011;42236;48.058;10.632;2023-05-07T01:28:09;4.80;;;4.15;;
56329;SDS011;42236;48.058;10.632;2023-05-07T01:30:58;5.93;;;4.30;;
56329;SDS011;42236;48.058;10.632;2023-05-07T01:33:49;4.25;;;3.97;;
56329;SDS011;42236;48.058;10.632;2023-05-07T01:36:38;5.70;;;4.07;;
56329;SDS011;42236;48.058;10.632;2023-05-07T01:39:25;4.75;;;4.30;;
56329;SDS011;42236;48.058;10.632;2023-05-07T01:42:12;4.30;;;3.90;;
56329;SDS011;42236;48.058;10.632;2023-05-07T01:44:58;6.70;;;4.20;;
56329;SDS011;42236;48.058;10.632;2023-05-07T01:47:44;4.27;;;3.83;;
56329;SDS011;42236;48.058;10.632;2023-05-07T01:50:30;8.52;;;3.70;;
56329;SDS011;42236;48.058;10.632;2023-05-07T01:53:17;5.07;;;3.75;;
56329;SDS011;42236;48.058;10.632;2023-05-07T01:56:03;3.40;;;3.00;;
56329;SDS011;42236;48.058;10.632;2023-05-07T01:58:52;3.72;;;3.42;;
56329;SDS011;42236;48.058;10.632;2023-05-07T02:01:38;3.72;;;3.28;;
56329;SDS011;42236;48.058;10.632;2023-05-07T02:04:23;4.20;;;3.80;;
56329;SDS011;42236;48.058;10.632;2023-05-07T02:07:10;4.25;;;3.42;;
56329;SDS011;42236;48.058;10.632;2023-05-07T02:09:55;3.85;;;3.55;;
56329;SDS011;42236;48.058;10.632;2023-05-07T02:12:41;5.20;;;3.67;;
56329;SDS011;42236;48.058;10.632;2023-05-07T02:15:28;3.85;;;3.50;;
56329;SDS011;42236;48.058;10.632;2023-05-07T02:18:13;3.70;;;3.35;;
56329;SDS011;42236;48.058;10.632;2023-05-07T02:20:59;5.10;;;3.42;;
56329;SDS011;42236;48.058;10.632;2023-05-07T02:23:45;5.40;;;3.70;;
56329;SDS011;42236;48.058;10.632;2023-05-07T02:26:30;4.88;;;4.18;;
56329;SDS011;42236;48.058;10.632;2023-05-07T02:29:16;4.90;;;3.95;;
56329;SDS011;42236;48.058;10.632;2023-05-07T02:32:02;4.20;;;3.85;;
56329;SDS011;42236;48.058;10.632;2023-05-07T02:34:49;5.70;;;4.15;;
56329;SDS011;42236;48.058;10.632;2023-05-07T02:37:36;4.20;;;3.80;;
56329;SDS011;42236;48.058;10.632;2023-05-07T02:40:22;4.22;;;3.83;;
56329;SDS011;42236;48.058;10.632;2023-05-07T02:43:07;6.43;;;4.20;;
56329;SDS011;42236;48.058;10.632;2023-05-07T02:46:01;3.85;;;3.53;;
56329;SDS011;42236;48.058;10.632;2023-05-07T02:48:48;6.07;;;4.45;;
56329;SDS011;42236;48.058;10.632;2023-05-07T02:51:33;4.13;;;3.67;;
56329;SDS011;42236;48.058;10.632;2023-05-07T02:54:19;6.30;;;4.88;;
56329;SDS011;42236;48.058;10.632;2023-05-07T02:57:05;5.37;;;4.60;;
56329;SDS011;42236;48.058;10.632;2023-05-07T02:59:50;5.30;;;4.03;;
56329;SDS011;42236;48.058;10.632;2023-05-07T03:02:36;4.82;;;4.22;;
56329;SDS011;42236;48.058;10.632;2023-05-07T03:05:22;5.18;;;4.60;;
56329;SDS011;42236;48.058;10.632;2023-05-07T03:08:07;4.72;;;4.32;;
56329;SDS011;42236;48.058;10.632;2023-05-07T03:10:54;5.07;;;4.50;;
56329;SDS011;42236;48.058;10.632;2023-05-07T03:13:39;5.60;;;4.97;;
56329;SDS011;42236;48.058;10.632;2023-05-07T03:16:25;6.05;;;4.95;;
56329;SDS011;42236;48.058;10.632;2023-05-07T03:19:12;6.35;;;5.30;;
56329;SDS011;42236;48.058;10.632;2023-05-07T03:21:57;7.17;;;4.97;;
56329;SDS011;42236;48.058;10.632;2023-05-07T03:24:43;5.97;;;5.00;;
56329;SDS011;42236;48.058;10.632;2023-05-07T03:27:29;5.90;;;5.40;;
56329;SDS011;42236;48.058;10.632;2023-05-07T03:30:14;6.40;;;5.00;;
56329;SDS011;42236;48.058;10.632;2023-05-07T03:33:00;7.00;;;5.87;;
56329;SDS011;42236;48.058;10.632;2023-05-07T03:35:46;5.25;;;4.75;;
56329;SDS011;42236;48.058;10.632;2023-05-07T03:38:31;7.18;;;5.30;;
56329;SDS011;42236;48.058;10.632;2023-05-07T03:41:17;5.43;;;4.82;;
56329;SDS011;42236;48.058;10.632;2023-05-07T03:44:03;5.22;;;4.55;;
56329;SDS011;42236;48.058;10.632;2023-05-07T03:46:48;4.80;;;4.40;;
56329;SDS011;42236;48.058;10.632;2023-05-07T03:49:34;5.18;;;4.68;;
56329;SDS011;42236;48.058;10.632;2023-05-07T03:52:20;4.90;;;4.47;;
56329;SDS011;42236;48.058;10.632;2023-05-07T03:55:09;5.13;;;4.63;;
56329;SDS011;42236;48.058;10.632;2023-05-07T03:57:55;3.90;;;3.58;;
56329;SDS011;42236;48.058;10.632;2023-05-07T04:00:41;4.20;;;3.90;;
56329;SDS011;42236;48.058;10.632;2023-05-07T04:03:27;5.93;;;5.10;;
56329;SDS011;42236;48.058;10.632;2023-05-07T04:06:15;8.40;;;4.97;;
56329;SDS011;42236;48.058;10.632;2023-05-07T04:09:01;5.82;;;5.25;;
56329;SDS011;42236;48.058;10.632;2023-05-07T04:11:47;5.25;;;4.85;;
56329;SDS011;42236;48.058;10.632;2023-05-07T04:14:32;7.63;;;4.97;;
56329;SDS011;42236;48.058;10.632;2023-05-07T04:17:18;5.38;;;4.88;;
56329;SDS011;42236;48.058;10.632;2023-05-07T04:20:04;6.13;;;4.47;;
56329;SDS011;42236;48.058;10.632;2023-05-07T04:22:52;4.93;;;4.43;;
56329;SDS011;42236;48.058;10.632;2023-05-07T04:25:38;8.10;;;4.57;;
56329;SDS011;42236;48.058;10.632;2023-05-07T04:28:23;4.32;;;3.97;;
56329;SDS011;42236;48.058;10.632;2023-05-07T04:31:09;5.28;;;4.80;;
56329;SDS011;42236;48.058;10.632;2023-05-07T04:33:55;4.75;;;4.32;;
56329;SDS011;42236;48.058;10.632;2023-05-07T04:36:41;5.10;;;3.85;;
56329;SDS011;42236;48.058;10.632;2023-05-07T04:39:27;6.47;;;4.87;;
56329;SDS011;42236;48.058;10.632;2023-05-07T04:42:16;5.97;;;4.75;;
56329;SDS011;42236;48.058;10.632;2023-05-07T04:45:03;7.47;;;5.55;;
56329;SDS011;42236;48.058;10.632;2023-05-07T04:47:50;5.93;;;5.10;;
56329;SDS011;42236;48.058;10.632;2023-05-07T04:50:35;5.43;;;4.93;;
56329;SDS011;42236;48.058;10.632;2023-05-07T04:53:21;8.48;;;4.85;;
56329;SDS011;42236;48.058;10.632;2023-05-07T04:56:07;5.60;;;5.10;;
56329;SDS011;42236;48.058;10.632;2023-05-07T04:58:53;6.18;;;5.00;;
56329;SDS011;42236;48.058;10.632;2023-05-07T05:01:39;5.72;;;4.93;;
56329;SDS011;42236;48.058;10.632;2023-05-07T05:04:25;7.05;;;5.47;;
56329;SDS011;42236;48.058;10.632;2023-05-07T05:07:11;4.78;;;4.38;;
56329;SDS011;42236;48.058;10.632;2023-05-07T05:09:57;4.30;;;3.78;;
56329;SDS011;42236;48.058;10.632;2023-05-07T05:15:54;4.97;;;3.67;;
56329;SDS011;42236;48.058;10.632;2023-05-07T05:18:40;4.72;;;3.20;;
56329;SDS011;42236;48.058;10.632;2023-05-07T05:21:26;4.35;;;3.58;;
56329;SDS011;42236;48.058;10.632;2023-05-07T05:24:12;4.63;;;4.22;;
56329;SDS011;42236;48.058;10.632;2023-05-07T05:30:05;4.40;;;4.00;;
56329;SDS011;42236;48.058;10.632;2023-05-07T05:32:51;5.57;;;4.10;;
56329;SDS011;42236;48.058;10.632;2023-05-07T05:35:37;4.72;;;4.32;;
56329;SDS011;42236;48.058;10.632;2023-05-07T05:38:23;4.18;;;3.88;;
56329;SDS011;42236;48.058;10.632;2023-05-07T05:41:12;3.63;;;3.33;;
56329;SDS011;42236;48.058;10.632;2023-05-07T05:44:01;3.53;;;3.28;;
56329;SDS011;42236;48.058;10.632;2023-05-07T05:46:47;4.20;;;3.65;;
56329;SDS011;42236;48.058;10.632;2023-05-07T05:49:35;3.80;;;3.50;;
56329;SDS011;42236;48.058;10.632;2023-05-07T05:55:55;4.25;;;3.20;;
56329;SDS011;42236;48.058;10.632;2023-05-07T05:58:41;3.92;;;3.30;;
56329;SDS011;42236;48.058;10.632;2023-05-07T06:01:45;3.30;;;3.00;;
56329;SDS011;42236;48.058;10.632;2023-05-07T06:05:04;7.32;;;3.45;;
56329;SDS011;42236;48.058;10.632;2023-05-07T06:07:52;4.60;;;2.90;;
56329;SDS011;42236;48.058;10.632;2023-05-07T06:10:38;3.15;;;2.80;;
56329;SDS011;42236;48.058;10.632;2023-05-07T06:13:25;2.85;;;2.65;;
56329;SDS011;42236;48.058;10.632;2023-05-07T06:16:11;4.05;;;2.45;;
56329;SDS011;42236;48.058;10.632;2023-05-07T06:18:57;3.05;;;2.75;;
56329;SDS011;42236;48.058;10.632;2023-05-07T06:21:43;3.90;;;2.78;;
56329;SDS011;42236;48.058;10.632;2023-05-07T06:27:43;2.78;;;2.47;;
56329;SDS011;42236;48.058;10.632;2023-05-07T06:30:31;2.58;;;2.10;;
56329;SDS011;42236;48.058;10.632;2023-05-07T06:37:09;2.00;;;1.85;;
56329;SDS011;42236;48.058;10.632;2023-05-07T06:43:38;3.92;;;1.83;;
56329;SDS011;42236;48.058;10.632;2023-05-07T06:46:24;2.45;;;2.25;;
56329;SDS011;42236;48.058;10.632;2023-05-07T06:49:09;3.53;;;2.58;;
56329;SDS011;42236;48.058;10.632;2023-05-07T06:55:08;2.10;;;1.90;;
56329;SDS011;42236;48.058;10.632;2023-05-07T06:57:57;3.40;;;2.00;;
56329;SDS011;42236;48.058;10.632;2023-05-07T07:00:46;3.15;;;2.20;;
56329;SDS011;42236;48.058;10.632;2023-05-07T07:03:32;2.28;;;2.08;;
56329;SDS011;42236;48.058;10.632;2023-05-07T07:06:17;2.90;;;2.40;;
56329;SDS011;42236;48.058;10.632;2023-05-07T07:09:03;2.33;;;2.05;;
56329;SDS011;42236;48.058;10.632;2023-05-07T07:11:58;4.78;;;2.30;;
56329;SDS011;42236;48.058;10.632;2023-05-07T07:14:44;2.60;;;2.40;;
56329;SDS011;42236;48.058;10.632;2023-05-07T07:17:30;6.95;;;2.65;;
56329;SDS011;42236;48.058;10.632;2023-05-07T07:23:35;2.40;;;2.20;;
56329;SDS011;42236;48.058;10.632;2023-05-07T07:26:29;4.18;;;2.25;;
56329;SDS011;42236;48.058;10.632;2023-05-07T07:29:20;3.72;;;2.88;;
56329;SDS011;42236;48.058;10.632;2023-05-07T07:32:07;2.42;;;2.05;;
56329;SDS011;42236;48.058;10.632;2023-05-07T07:34:52;2.20;;;2.00;;
56329;SDS011;42236;48.058;10.632;2023-05-07T07:37:49;2.80;;;2.00;;
56329;SDS011;42236;48.058;10.632;2023-05-07T07:40:47;1.95;;;1.83;;
56329;SDS011;42236;48.058;10.632;2023-05-07T07:47:43;1.95;;;1.60;;
56329;SDS011;42236;48.058;10.632;2023-05-07T07:50:29;1.73;;;1.63;;
56329;SDS011;42236;48.058;10.632;2023-05-07T07:56:49;2.42;;;1.90;;
56329;SDS011;42236;48.058;10.632;2023-05-07T07:59:44;1.70;;;1.52;;
56329;SDS011;42236;48.058;10.632;2023-05-07T08:02:29;1.63;;;1.30;;
56329;SDS011;42236;48.058;10.632;2023-05-07T08:05:15;2.75;;;1.60;;
56329;SDS011;42236;48.058;10.632;2023-05-07T08:11:47;1.50;;;1.40;;
56329;SDS011;42236;48.058;10.632;2023-05-07T08:14:34;1.58;;;1.48;;
56329;SDS011;42236;48.058;10.632;2023-05-07T08:17:24;2.72;;;1.52;;
56329;SDS011;42236;48.058;10.632;2023-05-07T08:20:44;1.17;;;1.17;;
56329;SDS011;42236;48.058;10.632;2023-05-07T08:23:27;4.00;;;1.95;;
56329;SDS011;42236;48.058;10.632;2023-05-07T08:26:21;1.55;;;1.23;;
56329;SDS011;42236;48.058;10.632;2023-05-07T08:32:51;1.25;;;1.08;;
56329;SDS011;42236;48.058;10.632;2023-05-07T08:35:37;1.40;;;1.20;;
56329;SDS011;42236;48.058;10.632;2023-05-07T08:38:40;2.55;;;1.30;;
56329;SDS011;42236;48.058;10.632;2023-05-07T08:41:28;1.73;;;1.15;;
56329;SDS011;42236;48.058;10.632;2023-05-07T08:47:44;1.20;;;1.13;;
56329;SDS011;42236;48.058;10.632;2023-05-07T08:50:36;0.85;;;0.85;;
56329;SDS011;42236;48.058;10.632;2023-05-07T08:53:26;0.88;;;0.88;;
56329;SDS011;42236;48.058;10.632;2023-05-07T08:59:46;2.13;;;1.25;;
56329;SDS011;42236;48.058;10.632;2023-05-07T09:02:35;1.45;;;1.15;;
56329;SDS011;42236;48.058;10.632;2023-05-07T09:05:22;0.82;;;0.82;;
56329;SDS011;42236;48.058;10.632;2023-05-07T09:08:26;1.10;;;1.00;;
56329;SDS011;42236;48.058;10.632;2023-05-07T09:11:13;1.40;;;1.27;;
56329;SDS011;42236;48.058;10.632;2023-05-07T09:14:01;3.15;;;1.30;;
56329;SDS011;42236;48.058;10.632;2023-05-07T09:16:48;1.40;;;1.30;;
56329;SDS011;42236;48.058;10.632;2023-05-07T09:19:39;1.67;;;1.35;;
56329;SDS011;42236;48.058;10.632;2023-05-07T09:26:07;1.58;;;1.00;;
56329;SDS011;42236;48.058;10.632;2023-05-07T09:29:07;1.23;;;1.02;;
56329;SDS011;42236;48.058;10.632;2023-05-07T09:32:05;1.13;;;1.02;;
56329;SDS011;42236;48.058;10.632;2023-05-07T09:35:19;2.97;;;1.30;;
56329;SDS011;42236;48.058;10.632;2023-05-07T09:38:14;2.80;;;1.40;;
56329;SDS011;42236;48.058;10.632;2023-05-07T09:44:53;1.58;;;1.30;;
56329;SDS011;42236;48.058;10.632;2023-05-07T09:47:39;2.45;;;1.33;;
56329;SDS011;42236;48.058;10.632;2023-05-07T09:50:32;1.77;;;1.23;;
56329;SDS011;42236;48.058;10.632;2023-05-07T09:54:04;1.27;;;1.17;;
56329;SDS011;42236;48.058;10.632;2023-05-07T09:56:53;1.90;;;1.15;;
56329;SDS011;42236;48.058;10.632;2023-05-07T09:59:40;1.45;;;1.05;;
56329;SDS011;42236;48.058;10.632;2023-05-07T10:02:30;1.50;;;0.98;;
56329;SDS011;42236;48.058;10.632;2023-05-07T10:05:21;2.05;;;1.00;;
56329;SDS011;42236;48.058;10.632;2023-05-07T10:08:07;1.40;;;1.00;;
56329;SDS011;42236;48.058;10.632;2023-05-07T10:10:56;1.83;;;1.20;;
56329;SDS011;42236;48.058;10.632;2023-05-07T10:17:12;1.80;;;0.93;;
56329;SDS011;42236;48.058;10.632;2023-05-07T10:20:08;1.48;;;1.00;;
56329;SDS011;42236;48.058;10.632;2023-05-07T10:23:00;1.73;;;0.90;;
56329;SDS011;42236;48.058;10.632;2023-05-07T10:25:52;1.70;;;1.33;;
56329;SDS011;42236;48.058;10.632;2023-05-07T10:28:41;1.00;;;1.00;;
56329;SDS011;42236;48.058;10.632;2023-05-07T10:34:40;1.00;;;0.90;;
56329;SDS011;42236;48.058;10.632;2023-05-07T10:37:50;1.30;;;1.10;;
56329;SDS011;42236;48.058;10.632;2023-05-07T10:40:36;1.27;;;1.17;;
56329;SDS011;42236;48.058;10.632;2023-05-07T10:43:22;1.50;;;1.40;;
56329;SDS011;42236;48.058;10.632;2023-05-07T10:46:18;2.28;;;1.30;;
56329;SDS011;42236;48.058;10.632;2023-05-07T10:49:33;1.63;;;1.20;;
56329;SDS011;42236;48.058;10.632;2023-05-07T10:52:39;5.45;;;1.35;;
56329;SDS011;42236;48.058;10.632;2023-05-07T10:55:25;5.13;;;1.38;;
56329;SDS011;42236;48.058;10.632;2023-05-07T10:58:26;2.75;;;1.38;;
56329;SDS011;42236;48.058;10.632;2023-05-07T11:01:16;1.65;;;1.55;;
56329;SDS011;42236;48.058;10.632;2023-05-07T11:04:37;4.05;;;1.67;;
56329;SDS011;42236;48.058;10.632;2023-05-07T11:07:53;1.42;;;1.33;;
56329;SDS011;42236;48.058;10.632;2023-05-07T11:10:51;1.45;;;1.33;;
56329;SDS011;42236;48.058;10.632;2023-05-07T11:13:42;1.60;;;1.50;;
56329;SDS011;42236;48.058;10.632;2023-05-07T11:16:50;1.30;;;1.20;;
56329;SDS011;42236;48.058;10.632;2023-05-07T11:20:03;1.92;;;1.38;;
56329;SDS011;42236;48.058;10.632;2023-05-07T11:22:52;1.67;;;1.58;;
56329;SDS011;42236;48.058;10.632;2023-05-07T11:25:38;1.85;;;1.73;;
56329;SDS011;42236;48.058;10.632;2023-05-07T11:28:31;2.03;;;1.92;;
56329;SDS011;42236;48.058;10.632;2023-05-07T11:34:51;3.58;;;1.90;;
56329;SDS011;42236;48.058;10.632;2023-05-07T11:37:38;2.22;;;1.77;;
56329;SDS011;42236;48.058;10.632;2023-05-07T11:40:24;1.90;;;1.80;;
56329;SDS011;42236;48.058;10.632;2023-05-07T11:43:13;1.80;;;1.70;;
56329;SDS011;42236;48.058;10.632;2023-05-07T11:46:20;1.60;;;1.50;;
56329;SDS011;42236;48.058;10.632;2023-05-07T11:49:20;2.05;;;1.52;;
56329;SDS011;42236;48.058;10.632;2023-05-07T11:52:13;2.92;;;1.33;;
56329;SDS011;42236;48.058;10.632;2023-05-07T11:55:12;1.90;;;1.50;;
56329;SDS011;42236;48.058;10.632;2023-05-07T11:57:58;1.52;;;1.42;;
56329;SDS011;42236;48.058;10.632;2023-05-07T12:04:11;1.30;;;1.20;;
56329;SDS011;42236;48.058;10.632;2023-05-07T12:07:04;1.65;;;1.00;;
56329;SDS011;42236;48.058;10.632;2023-05-07T12:09:50;2.17;;;1.25;;
56329;SDS011;42236;48.058;10.632;2023-05-07T12:12:51;1.70;;;1.60;;
56329;SDS011;42236;48.058;10.632;2023-05-07T12:15:56;3.33;;;1.40;;
56329;SDS011;42236;48.058;10.632;2023-05-07T12:18:48;1.52;;;1.33;;
56329;SDS011;42236;48.058;10.632;2023-05-07T12:21:34;1.77;;;1.45;;
56329;SDS011;42236;48.058;10.632;2023-05-07T12:24:21;1.70;;;1.30;;
56329;SDS011;42236;48.058;10.632;2023-05-07T12:27:15;3.78;;;1.10;;
56329;SDS011;42236;48.058;10.632;2023-05-07T12:30:12;1.70;;;0.95;;
56329;SDS011;42236;48.058;10.632;2023-05-07T12:33:00;1.17;;;1.02;;
56329;SDS011;42236;48.058;10.632;2023-05-07T12:39:17;2.67;;;0.90;;
56329;SDS011;42236;48.058;10.632;2023-05-07T12:42:03;6.55;;;1.10;;
56329;SDS011;42236;48.058;10.632;2023-05-07T12:44:49;1.38;;;0.90;;
56329;SDS011;42236;48.058;10.632;2023-05-07T12:47:38;2.05;;;1.08;;
56329;SDS011;42236;48.058;10.632;2023-05-07T12:53:45;0.85;;;0.85;;
56329;SDS011;42236;48.058;10.632;2023-05-07T12:56:31;1.52;;;0.98;;
56329;SDS011;42236;48.058;10.632;2023-05-07T12:59:30;2.00;;;1.10;;
56329;SDS011;42236;48.058;10.632;2023-05-07T13:02:19;0.88;;;0.88;;
56329;SDS011;42236;48.058;10.632;2023-05-07T13:05:10;3.20;;;0.88;;
56329;SDS011;42236;48.058;10.632;2023-05-07T13:07:56;1.45;;;1.05;;
56329;SDS011;42236;48.058;10.632;2023-05-07T13:10:58;4.20;;;1.02;;
56329;SDS011;42236;48.058;10.632;2023-05-07T13:13:45;1.40;;;0.90;;
56329;SDS011;42236;48.058;10.632;2023-05-07T13:16:31;0.98;;;0.95;;
56329;SDS011;42236;48.058;10.632;2023-05-07T13:19:35;1.77;;;0.90;;
56329;SDS011;42236;48.058;10.632;2023-05-07T13:22:22;2.15;;;0.80;;
56329;SDS011;42236;48.058;10.632;2023-05-07T13:25:08;1.48;;;0.80;;
56329;SDS011;42236;48.058;10.632;2023-05-07T13:27:57;0.93;;;0.93;;
56329;SDS011;42236;48.058;10.632;2023-05-07T13:30:43;1.00;;;0.88;;
56329;SDS011;42236;48.058;10.632;2023-05-07T13:33:28;1.40;;;1.00;;
56329;SDS011;42236;48.058;10.632;2023-05-07T13:36:14;0.73;;;0.73;;
56329;SDS011;42236;48.058;10.632;2023-05-07T13:39:00;1.58;;;0.82;;
56329;SDS011;42236;48.058;10.632;2023-05-07T13:41:46;2.75;;;1.23;;
56329;SDS011;42236;48.058;10.632;2023-05-07T13:48:17;1.10;;;1.10;;
56329;SDS011;42236;48.058;10.632;2023-05-07T13:51:03;1.58;;;1.00;;
56329;SDS011;42236;48.058;10.632;2023-05-07T13:53:48;2.53;;;1.30;;
56329;SDS011;42236;48.058;10.632;2023-05-07T13:56:34;1.17;;;1.02;;
56329;SDS011;42236;48.058;10.632;2023-05-07T13:59:28;0.93;;;0.93;;
56329;SDS011;42236;48.058;10.632;2023-05-07T14:06:05;2.67;;;1.10;;
56329;SDS011;42236;48.058;10.632;2023-05-07T14:08:51;1.55;;;0.93;;
56329;SDS011;42236;48.058;10.632;2023-05-07T14:11:37;2.38;;;1.00;;
56329;SDS011;42236;48.058;10.632;2023-05-07T14:14:22;1.33;;;1.17;;
56329;SDS011;42236;48.058;10.632;2023-05-07T14:17:11;1.48;;;0.95;;
56329;SDS011;42236;48.058;10.632;2023-05-07T14:19:57;1.77;;;0.90;;
56329;SDS011;42236;48.058;10.632;2023-05-07T14:22:43;0.82;;;0.80;;
56329;SDS011;42236;48.058;10.632;2023-05-07T14:25:29;2.25;;;1.13;;
56329;SDS011;42236;48.058;10.632;2023-05-07T14:28:15;1.08;;;1.08;;
56329;SDS011;42236;48.058;10.632;2023-05-07T14:31:04;0.90;;;0.85;;
56329;SDS011;42236;48.058;10.632;2023-05-07T14:33:50;2.88;;;1.10;;
56329;SDS011;42236;48.058;10.632;2023-05-07T14:36:36;1.00;;;0.90;;
56329;SDS011;42236;48.058;10.632;2023-05-07T14:39:23;0.85;;;0.85;;
56329;SDS011;42236;48.058;10.632;2023-05-07T14:42:20;1.38;;;0.90;;
56329;SDS011;42236;48.058;10.632;2023-05-07T14:45:10;2.05;;;1.15;;
56329;SDS011;42236;48.058;10.632;2023-05-07T14:47:56;1.48;;;1.00;;
56329;SDS011;42236;48.058;10.632;2023-05-07T14:50:42;0.90;;;0.80;;
56329;SDS011;42236;48.058;10.632;2023-05-07T14:53:30;2.53;;;0.80;;
56329;SDS011;42236;48.058;10.632;2023-05-07T14:56:17;1.50;;;0.80;;
56329;SDS011;42236;48.058;10.632;2023-05-07T14:59:13;0.85;;;0.85;;
56329;SDS011;42236;48.058;10.632;2023-05-07T15:02:01;1.13;;;0.80;;
56329;SDS011;42236;48.058;10.632;2023-05-07T15:04:47;0.90;;;0.90;;
56329;SDS011;42236;48.058;10.632;2023-05-07T15:07:33;3.03;;;1.00;;
56329;SDS011;42236;48.058;10.632;2023-05-07T15:10:34;0.73;;;0.73;;
56329;SDS011;42236;48.058;10.632;2023-05-07T15:13:26;1.60;;;1.00;;
56329;SDS011;42236;48.058;10.632;2023-05-07T15:16:14;2.17;;;0.80;;
56329;SDS011;42236;48.058;10.632;2023-05-07T15:19:00;1.95;;;0.80;;
56329;SDS011;42236;48.058;10.632;2023-05-07T15:21:46;1.38;;;1.27;;
56329;SDS011;42236;48.058;10.632;2023-05-07T15:24:32;1.08;;;1.05;;
56329;SDS011;42236;48.058;10.632;2023-05-07T15:27:18;2.50;;;1.10;;
56329;SDS011;42236;48.058;10.632;2023-05-07T15:30:04;1.75;;;1.10;;
56329;SDS011;42236;48.058;10.632;2023-05-07T15:32:50;1.67;;;1.17;;
56329;SDS011;42236;48.058;10.632;2023-05-07T15:35:36;1.25;;;1.00;;
56329;SDS011;42236;48.058;10.632;2023-05-07T15:41:59;1.02;;;0.95;;
56329;SDS011;42236;48.058;10.632;2023-05-07T15:44:48;1.08;;;0.90;;
56329;SDS011;42236;48.058;10.632;2023-05-07T15:47:34;1.65;;;1.17;;
56329;SDS011;42236;48.058;10.632;2023-05-07T15:53:38;1.23;;;1.10;;
56329;SDS011;42236;48.058;10.632;2023-05-07T15:56:25;1.42;;;1.20;;
56329;SDS011;42236;48.058;10.632;2023-05-07T15:59:11;1.40;;;1.30;;
56329;SDS011;42236;48.058;10.632;2023-05-07T16:01:57;1.20;;;1.10;;
56329;SDS011;42236;48.058;10.632;2023-05-07T16:04:57;2.75;;;1.70;;
56329;SDS011;42236;48.058;10.632;2023-05-07T16:07:43;1.58;;;1.48;;
56329;SDS011;42236;48.058;10.632;2023-05-07T16:10:29;2.30;;;1.30;;
56329;SDS011;42236;48.058;10.632;2023-05-07T16:13:20;1.60;;;1.50;;
56329;SDS011;42236;48.058;10.632;2023-05-07T16:16:12;2.95;;;1.85;;
56329;SDS011;42236;48.058;10.632;2023-05-07T16:18:58;5.35;;;1.58;;
56329;SDS011;42236;48.058;10.632;2023-05-07T16:25:23;2.63;;;1.40;;
56329;SDS011;42236;48.058;10.632;2023-05-07T16:28:11;2.20;;;1.80;;
56329;SDS011;42236;48.058;10.632;2023-05-07T16:30:58;2.25;;;2.05;;
56329;SDS011;42236;48.058;10.632;2023-05-07T16:37:02;3.58;;;1.80;;
56329;SDS011;42236;48.058;10.632;2023-05-07T16:42:56;2.10;;;2.00;;
56329;SDS011;42236;48.058;10.632;2023-05-07T16:45:43;2.20;;;2.10;;
56329;SDS011;42236;48.058;10.632;2023-05-07T16:48:29;2.92;;;2.08;;
56329;SDS011;42236;48.058;10.632;2023-05-07T16:51:15;2.35;;;2.15;;
56329;SDS011;42236;48.058;10.632;2023-05-07T16:54:09;2.35;;;1.60;;
56329;SDS011;42236;48.058;10.632;2023-05-07T16:56:59;2.35;;;2.15;;
56329;SDS011;42236;48.058;10.632;2023-05-07T16:59:46;3.00;;;1.85;;
56329;SDS011;42236;48.058;10.632;2023-05-07T17:02:32;2.60;;;1.52;;
56329;SDS011;42236;48.058;10.632;2023-05-07T17:05:19;2.85;;;1.80;;
56329;SDS011;42236;48.058;10.632;2023-05-07T17:08:05;1.90;;;1.80;;
56329;SDS011;42236;48.058;10.632;2023-05-07T17:10:51;2.03;;;1.83;;
56329;SDS011;42236;48.058;10.632;2023-05-07T17:14:27;1.85;;;1.75;;
56329;SDS011;42236;48.058;10.632;2023-05-07T17:16:46;3.25;;;2.00;;
56329;SDS011;42236;48.058;10.632;2023-05-07T17:19:32;4.03;;;2.13;;
56329;SDS011;42236;48.058;10.632;2023-05-07T17:26:10;3.88;;;1.95;;
56329;SDS011;42236;48.058;10.632;2023-05-07T17:29:00;2.08;;;1.98;;
56329;SDS011;42236;48.058;10.632;2023-05-07T17:31:45;2.55;;;1.73;;
56329;SDS011;42236;48.058;10.632;2023-05-07T17:34:31;2.08;;;1.52;;
56329;SDS011;42236;48.058;10.632;2023-05-07T17:37:20;7.82;;;1.88;;
56329;SDS011;42236;48.058;10.632;2023-05-07T17:40:06;2.15;;;1.70;;
56329;SDS011;42236;48.058;10.632;2023-05-07T17:42:52;1.83;;;1.40;;
56329;SDS011;42236;48.058;10.632;2023-05-07T17:45:38;1.92;;;1.50;;
56329;SDS011;42236;48.058;10.632;2023-05-07T17:48:24;1.33;;;1.23;;
56329;SDS011;42236;48.058;10.632;2023-05-07T17:51:10;3.83;;;1.70;;
56329;SDS011;42236;48.058;10.632;2023-05-07T17:53:59;2.40;;;1.58;;
56329;SDS011;42236;48.058;10.632;2023-05-07T17:56:45;2.15;;;1.27;;
56329;SDS011;42236;48.058;10.632;2023-05-07T17:59:30;1.65;;;1.40;;
56329;SDS011;42236;48.058;10.632;2023-05-07T18:02:17;1.35;;;1.25;;
56329;SDS011;42236;48.058;10.632;2023-05-07T18:05:06;1.85;;;0.90;;
56329;SDS011;42236;48.058;10.632;2023-05-07T18:07:53;1.60;;;1.20;;
56329;SDS011;42236;48.058;10.632;2023-05-07T18:10:39;1.98;;;0.80;;
56329;SDS011;42236;48.058;10.632;2023-05-07T18:13:26;1.02;;;0.93;;
56329;SDS011;42236;48.058;10.632;2023-05-07T18:16:12;1.63;;;1.45;;
56329;SDS011;42236;48.058;10.632;2023-05-07T18:18:59;2.00;;;1.40;;
56329;SDS011;42236;48.058;10.632;2023-05-07T18:21:44;2.38;;;1.67;;
56329;SDS011;42236;48.058;10.632;2023-05-07T18:24:30;1.83;;;1.60;;
56329;SDS011;42236;48.058;10.632;2023-05-07T18:27:16;2.95;;;1.98;;